createdAt,value
2019-01-10T00:04:39.604Z,0.4
2019-01-10T00:10:05.814Z,0.3
2019-01-10T00:15:33.138Z,0.2
2019-01-10T00:21:00.447Z,0.1
2019-01-10T00:26:26.738Z,0
2019-01-10T00:31:54.006Z,-0.1
2019-01-10T00:37:20.390Z,-0.1
2019-01-10T00:42:49.344Z,-0.1
2019-01-10T00:48:14.869Z,-0.2
2019-01-10T00:53:41.099Z,-0.3
2019-01-10T00:59:08.359Z,-0.5
2019-01-10T01:04:34.732Z,-0.5
2019-01-10T01:10:01.894Z,-0.5
2019-01-10T01:15:28.170Z,-0.6
2019-01-10T01:20:55.421Z,-0.6
2019-01-10T01:26:21.639Z,-0.6
2019-01-10T01:31:47.881Z,-0.6
2019-01-10T01:37:15.156Z,-0.4
2019-01-10T01:42:41.490Z,-0.4
2019-01-10T01:48:07.676Z,-0.5
2019-01-10T01:53:34.918Z,-0.6
2019-01-10T01:59:02.195Z,-0.6
2019-01-10T02:04:28.433Z,-0.7
2019-01-10T02:09:54.640Z,-0.8
2019-01-10T02:15:21.891Z,-0.9
2019-01-10T02:20:49.104Z,-1
2019-01-10T02:26:15.323Z,-1.1
2019-01-10T02:31:41.560Z,-1.1
2019-01-10T02:37:08.884Z,-1.1
2019-01-10T02:42:34.929Z,-1.1
2019-01-10T02:48:01.237Z,-1.1
2019-01-10T02:53:28.362Z,-1.1
2019-01-10T02:58:54.557Z,-1.1
2019-01-10T03:04:21.771Z,-1.1
2019-01-10T03:09:47.960Z,-1.1
2019-01-10T03:15:15.187Z,-1.1
2019-01-10T03:20:41.416Z,-1.1
2019-01-10T03:26:08.601Z,-1.1
2019-01-10T03:31:35.873Z,-1.1
2019-01-10T03:37:02.097Z,-1
2019-01-10T03:42:29.222Z,-1
2019-01-10T03:47:55.441Z,-1
2019-01-10T03:53:21.631Z,-1
2019-01-10T03:58:48.854Z,-1.1
2019-01-10T04:04:16.340Z,-1.1
2019-01-10T04:09:42.305Z,-1.1
2019-01-10T04:15:08.462Z,-1.1
2019-01-10T04:20:35.677Z,-1.2
2019-01-10T04:26:01.871Z,-1.2
2019-01-10T04:31:29.046Z,-1.2
2019-01-10T04:36:55.282Z,-1.2
2019-01-10T04:42:22.476Z,-1.2
2019-01-10T04:47:48.679Z,-1.1
2019-01-10T04:53:14.908Z,-1.1
2019-01-10T04:58:41.074Z,-1.1
2019-01-10T05:04:07.246Z,-1.1
2019-01-10T05:09:33.455Z,-1
2019-01-10T05:15:00.689Z,-1
2019-01-10T05:20:26.925Z,-1
2019-01-10T05:25:53.128Z,-1
2019-01-10T05:31:20.354Z,-1
2019-01-10T05:36:47.607Z,-1
2019-01-10T05:42:13.832Z,-0.9
2019-01-10T05:47:42.900Z,-1
2019-01-10T05:53:07.194Z,-1
2019-01-10T05:58:33.431Z,-1
2019-01-10T06:03:59.645Z,-0.9
2019-01-10T06:09:26.785Z,-0.9
2019-01-10T06:14:53.038Z,-0.8
2019-01-10T06:20:19.279Z,-0.8
2019-01-10T06:25:46.522Z,-0.9
2019-01-10T06:31:13.708Z,-0.9
2019-01-10T06:36:39.957Z,-0.8
2019-01-10T06:42:06.200Z,-0.8
2019-01-10T06:47:33.425Z,-0.8
2019-01-10T06:53:00.681Z,-0.8
2019-01-10T06:58:27.836Z,-0.7
2019-01-10T07:03:54.073Z,-0.7
2019-01-10T07:09:21.264Z,-0.8
2019-01-10T07:14:53.476Z,-0.8
2019-01-10T07:20:14.745Z,-0.8
2019-01-10T07:25:40.940Z,-0.8
2019-01-10T07:31:07.156Z,-0.7
2019-01-10T07:36:33.394Z,-0.7
2019-01-10T07:41:59.586Z,-0.7
2019-01-10T07:47:26.820Z,-0.7
2019-01-10T07:52:53.044Z,-0.7
2019-01-10T07:58:20.412Z,-0.6
2019-01-10T08:03:47.567Z,-0.6
2019-01-10T08:09:14.748Z,-0.5
2019-01-10T08:14:41.101Z,-0.5
2019-01-10T08:20:07.222Z,-0.5
2019-01-10T08:25:34.445Z,-0.5
2019-01-10T08:31:00.692Z,-0.5
2019-01-10T08:36:32.520Z,-0.4
2019-01-10T08:41:55.213Z,-0.4
2019-01-10T08:47:21.451Z,-0.4
2019-01-10T08:52:47.723Z,-0.3
2019-01-10T08:58:14.962Z,-0.3
2019-01-10T09:03:42.314Z,-0.2
2019-01-10T09:09:09.519Z,-0.2
2019-01-10T09:14:35.878Z,-0.2
2019-01-10T09:20:02.137Z,-0.2
2019-01-10T09:25:29.295Z,-0.1
2019-01-10T09:30:56.551Z,-0.1
2019-01-10T09:36:23.974Z,0
2019-01-10T09:41:50.316Z,0.1
2019-01-10T09:47:17.407Z,0.2
2019-01-10T09:52:44.717Z,0.3
2019-01-10T09:58:11.978Z,0.3
2019-01-10T10:03:38.287Z,0.4
2019-01-10T10:09:04.566Z,0.4
2019-01-10T10:14:30.910Z,0.5
2019-01-10T10:19:58.332Z,0.5
2019-01-10T10:25:26.026Z,0.6
2019-01-10T10:30:55.044Z,0.6
2019-01-10T10:36:19.155Z,0.7
2019-01-10T10:41:45.487Z,0.7
2019-01-10T10:47:11.775Z,0.7
2019-01-10T10:52:38.117Z,0.7
2019-01-10T10:58:04.565Z,0.8
2019-01-10T11:03:31.764Z,0.8
2019-01-10T11:08:58.105Z,0.9
2019-01-10T11:14:24.440Z,0.9
2019-01-10T11:19:51.784Z,1
2019-01-10T11:25:18.137Z,1
2019-01-10T11:30:45.479Z,1
2019-01-10T11:36:11.792Z,1
2019-01-10T11:41:38.157Z,1.1
2019-01-10T11:47:04.508Z,1.1
2019-01-10T11:52:30.827Z,1.1
2019-01-10T11:57:57.163Z,1.1
2019-01-10T12:03:24.503Z,1.1
2019-01-10T12:08:50.841Z,1.1
2019-01-10T12:14:17.215Z,1.1
2019-01-10T12:19:44.605Z,1.1
2019-01-10T12:25:11.922Z,1.1
2019-01-10T12:30:38.385Z,1.1
2019-01-10T12:36:04.627Z,1.1
2019-01-10T12:41:31.967Z,1.2
2019-01-10T12:46:58.317Z,1.2
2019-01-10T12:52:34.805Z,1.2
2019-01-10T12:57:52.091Z,1.2
2019-01-10T13:03:19.430Z,1.2
2019-01-10T13:08:45.720Z,1.1
2019-01-10T13:14:12.148Z,1.2
2019-01-10T13:19:39.432Z,1.2
2019-01-10T13:25:05.744Z,1.2
2019-01-10T13:30:33.143Z,1.2
2019-01-10T13:35:59.463Z,1.2
2019-01-10T13:41:26.866Z,1.3
2019-01-10T13:46:55.654Z,1.3
2019-01-10T13:52:20.711Z,1.3
2019-01-10T13:57:47.934Z,1.3
2019-01-10T14:03:15.305Z,1.3
2019-01-10T14:08:42.644Z,1.3
2019-01-10T14:14:09.005Z,1.3
2019-01-10T14:19:35.392Z,1.3
2019-01-10T14:25:02.871Z,1.3
2019-01-10T14:30:29.118Z,1.3
2019-01-10T14:35:55.468Z,1.3
2019-01-10T14:41:21.870Z,1.3
2019-01-10T14:46:49.196Z,1.3
2019-01-10T14:52:16.697Z,1.3
2019-01-10T14:57:43.901Z,1.3
2019-01-10T15:03:10.430Z,1.3
2019-01-10T15:08:37.635Z,1.3
2019-01-10T15:14:03.992Z,1.3
2019-01-10T15:19:31.420Z,1.3
2019-01-10T15:24:58.707Z,1.3
2019-01-10T15:30:25.082Z,1.3
2019-01-10T15:35:51.454Z,1.3
2019-01-10T15:41:18.829Z,1.3
2019-01-10T15:46:46.202Z,1.3
2019-01-10T15:52:13.234Z,1.3
2019-01-10T15:57:38.863Z,1.3
2019-01-10T16:03:05.276Z,1.3
2019-01-10T16:08:32.651Z,1.3
2019-01-10T16:13:59.946Z,1.3
2019-01-10T16:19:27.361Z,1.3
2019-01-10T16:24:54.691Z,1.3
2019-01-10T16:30:21.045Z,1.3
2019-01-10T16:35:47.429Z,1.3
2019-01-10T16:41:14.788Z,1.3
2019-01-10T16:46:41.153Z,1.3
2019-01-10T16:52:08.494Z,1.3
2019-01-10T16:57:35.869Z,1.3
2019-01-10T17:03:02.239Z,1.3
2019-01-10T17:08:29.598Z,1.3
2019-01-10T17:13:56.962Z,1.4
2019-01-10T17:19:24.327Z,1.4
2019-01-10T17:24:50.697Z,1.4
2019-01-10T17:30:17.050Z,1.4
2019-01-10T17:35:43.439Z,1.4
2019-01-10T17:41:09.877Z,1.4
2019-01-10T17:46:37.198Z,1.4
2019-01-10T17:52:04.531Z,1.4
2019-01-10T17:57:30.915Z,1.4
2019-01-10T18:02:57.294Z,1.4
2019-01-10T18:08:24.661Z,1.5
2019-01-10T18:13:51.110Z,1.5
2019-01-10T18:19:17.438Z,1.5
2019-01-10T18:24:43.784Z,1.5
2019-01-10T18:30:10.417Z,1.5
2019-01-10T18:35:37.538Z,1.6
2019-01-10T18:41:04.028Z,1.6
2019-01-10T18:46:31.347Z,1.6
2019-01-10T18:51:57.757Z,1.7
2019-01-10T18:57:25.067Z,1.7
2019-01-10T19:02:52.500Z,1.7
2019-01-10T19:08:19.843Z,1.7
2019-01-10T19:13:46.308Z,1.8
2019-01-10T19:19:12.607Z,1.8
2019-01-10T19:24:39.053Z,1.8
2019-01-10T19:30:05.422Z,1.8
2019-01-10T19:35:31.821Z,1.9
2019-01-10T19:40:59.215Z,1.9
2019-01-10T19:46:25.676Z,1.9
2019-01-10T19:51:52.070Z,1.9
2019-01-10T19:57:19.405Z,1.9
2019-01-10T20:02:46.796Z,1.9
2019-01-10T20:08:13.142Z,1.9
2019-01-10T20:13:39.547Z,1.9
2019-01-10T20:19:05.938Z,1.9
2019-01-10T20:24:32.374Z,1.9
2019-01-10T20:29:58.729Z,1.9
2019-01-10T20:35:26.134Z,2
2019-01-10T20:40:52.571Z,2
2019-01-10T20:46:19.934Z,2
2019-01-10T20:51:46.433Z,2
2019-01-10T20:57:12.736Z,2
2019-01-10T21:02:39.099Z,2
2019-01-10T21:08:06.499Z,2
2019-01-10T21:13:33.901Z,2
2019-01-10T21:19:01.404Z,2
2019-01-10T21:24:28.666Z,2
2019-01-10T21:29:56.106Z,2.1
2019-01-10T21:35:22.451Z,2.1
2019-01-10T21:40:48.872Z,2.1
2019-01-10T21:46:15.291Z,2.1
2019-01-10T21:51:42.690Z,2.1
2019-01-10T21:57:09.113Z,2.1
2019-01-10T22:02:35.886Z,2.2
2019-01-10T22:08:01.931Z,2.2
2019-01-10T22:13:32.581Z,2.2
2019-01-10T22:18:55.767Z,2.2
2019-01-10T22:24:22.234Z,2.3
2019-01-10T22:29:48.557Z,2.3
2019-01-10T22:35:15.995Z,2.3
2019-01-10T22:40:43.418Z,2.4
2019-01-10T22:46:09.822Z,2.5
2019-01-10T22:51:37.336Z,2.5
2019-01-10T22:57:03.727Z,2.6
2019-01-10T23:02:31.807Z,2.7
2019-01-10T23:07:57.576Z,2.7
2019-01-10T23:13:24.194Z,2.8
2019-01-10T23:18:54.187Z,2.9
2019-01-10T23:24:18.001Z,3
2019-01-10T23:29:45.504Z,3.1
2019-01-10T23:35:11.965Z,3.1
2019-01-10T23:40:39.451Z,3.1
2019-01-10T23:46:06.933Z,3.2
2019-01-10T23:51:33.464Z,3.2
2019-01-10T23:56:59.906Z,3.3
